sensor_id;sensor_type;location;lat;lon;timestamp;P1;durP1;ratioP1;P2;durP2;ratioP2
65459;SDS011;52058;49.822;6.754;2023-07-28T00:01:57;2.22;;;1.40;;
65459;SDS011;52058;49.822;6.754;2023-07-28T00:04:23;2.50;;;1.50;;
65459;SDS011;52058;49.822;6.754;2023-07-28T00:06:50;1.58;;;1.33;;
65459;SDS011;52058;49.822;6.754;2023-07-28T00:09:16;2.20;;;1.60;;
65459;SDS011;52058;49.822;6.754;2023-07-28T00:11:43;2.05;;;1.30;;
65459;SDS011;52058;49.822;6.754;2023-07-28T00:14:11;1.40;;;1.10;;
65459;SDS011;52058;49.822;6.754;2023-07-28T00:16:37;2.35;;;1.33;;
65459;SDS011;52058;49.822;6.754;2023-07-28T00:19:04;2.70;;;1.10;;
65459;SDS011;52058;49.822;6.754;2023-07-28T00:21:31;1.23;;;1.13;;
65459;SDS011;52058;49.822;6.754;2023-07-28T00:23:57;1.70;;;1.25;;
65459;SDS011;52058;49.822;6.754;2023-07-28T00:26:24;2.03;;;1.00;;
65459;SDS011;52058;49.822;6.754;2023-07-28T00:28:50;1.45;;;1.10;;
65459;SDS011;52058;49.822;6.754;2023-07-28T00:31:18;1.30;;;1.10;;
65459;SDS011;52058;49.822;6.754;2023-07-28T00:33:45;1.45;;;1.00;;
65459;SDS011;52058;49.822;6.754;2023-07-28T00:36:12;1.27;;;1.17;;
65459;SDS011;52058;49.822;6.754;2023-07-28T00:38:38;1.30;;;1.05;;
65459;SDS011;52058;49.822;6.754;2023-07-28T00:41:05;2.10;;;1.20;;
65459;SDS011;52058;49.822;6.754;2023-07-28T00:43:31;1.48;;;1.15;;
65459;SDS011;52058;49.822;6.754;2023-07-28T00:45:58;1.92;;;1.13;;
65459;SDS011;52058;49.822;6.754;2023-07-28T00:48:26;2.45;;;1.15;;
65459;SDS011;52058;49.822;6.754;2023-07-28T00:50:52;1.20;;;1.10;;
65459;SDS011;52058;49.822;6.754;2023-07-28T00:53:20;1.70;;;1.15;;
65459;SDS011;52058;49.822;6.754;2023-07-28T00:55:49;1.42;;;1.13;;
65459;SDS011;52058;49.822;6.754;2023-07-28T00:58:17;2.33;;;0.98;;
65459;SDS011;52058;49.822;6.754;2023-07-28T01:00:43;1.20;;;1.10;;
65459;SDS011;52058;49.822;6.754;2023-07-28T01:03:10;1.63;;;1.20;;
65459;SDS011;52058;49.822;6.754;2023-07-28T01:05:42;2.42;;;1.15;;
65459;SDS011;52058;49.822;6.754;2023-07-28T01:08:15;2.50;;;1.40;;
65459;SDS011;52058;49.822;6.754;2023-07-28T01:13:12;3.08;;;1.10;;
65459;SDS011;52058;49.822;6.754;2023-07-28T01:15:39;1.30;;;1.20;;
65459;SDS011;52058;49.822;6.754;2023-07-28T01:18:05;2.42;;;1.38;;
65459;SDS011;52058;49.822;6.754;2023-07-28T01:20:33;1.33;;;1.15;;
65459;SDS011;52058;49.822;6.754;2023-07-28T01:23:18;1.25;;;1.10;;
65459;SDS011;52058;49.822;6.754;2023-07-28T01:25:49;1.17;;;0.98;;
65459;SDS011;52058;49.822;6.754;2023-07-28T01:28:27;1.42;;;1.10;;
65459;SDS011;52058;49.822;6.754;2023-07-28T01:30:54;1.23;;;1.10;;
65459;SDS011;52058;49.822;6.754;2023-07-28T01:33:20;1.40;;;1.10;;
65459;SDS011;52058;49.822;6.754;2023-07-28T01:35:47;1.48;;;1.20;;
65459;SDS011;52058;49.822;6.754;2023-07-28T01:38:13;1.70;;;1.30;;
65459;SDS011;52058;49.822;6.754;2023-07-28T01:40:41;1.33;;;1.23;;
65459;SDS011;52058;49.822;6.754;2023-07-28T01:43:07;1.45;;;1.20;;
65459;SDS011;52058;49.822;6.754;2023-07-28T01:45:35;3.03;;;1.50;;
65459;SDS011;52058;49.822;6.754;2023-07-28T01:48:02;1.52;;;1.30;;
65459;SDS011;52058;49.822;6.754;2023-07-28T01:50:29;1.45;;;1.30;;
65459;SDS011;52058;49.822;6.754;2023-07-28T01:52:55;1.55;;;1.13;;
65459;SDS011;52058;49.822;6.754;2023-07-28T01:55:22;2.05;;;1.50;;
65459;SDS011;52058;49.822;6.754;2023-07-28T01:57:54;1.30;;;1.15;;
65459;SDS011;52058;49.822;6.754;2023-07-28T02:00:21;2.83;;;1.50;;
65459;SDS011;52058;49.822;6.754;2023-07-28T02:02:49;1.80;;;1.35;;
65459;SDS011;52058;49.822;6.754;2023-07-28T02:05:16;1.55;;;1.33;;
65459;SDS011;52058;49.822;6.754;2023-07-28T02:07:43;2.80;;;1.65;;
65459;SDS011;52058;49.822;6.754;2023-07-28T02:10:09;3.28;;;1.50;;
65459;SDS011;52058;49.822;6.754;2023-07-28T02:12:36;3.67;;;1.92;;
65459;SDS011;52058;49.822;6.754;2023-07-28T02:15:04;2.72;;;1.95;;
65459;SDS011;52058;49.822;6.754;2023-07-28T02:17:32;3.50;;;1.70;;
65459;SDS011;52058;49.822;6.754;2023-07-28T02:20:00;4.07;;;1.80;;
65459;SDS011;52058;49.822;6.754;2023-07-28T02:22:28;2.72;;;1.55;;
65459;SDS011;52058;49.822;6.754;2023-07-28T02:24:55;2.53;;;1.80;;
65459;SDS011;52058;49.822;6.754;2023-07-28T02:27:21;3.50;;;2.15;;
65459;SDS011;52058;49.822;6.754;2023-07-28T02:29:48;3.47;;;2.25;;
65459;SDS011;52058;49.822;6.754;2023-07-28T02:32:14;4.72;;;1.80;;
65459;SDS011;52058;49.822;6.754;2023-07-28T02:34:41;2.30;;;1.90;;
65459;SDS011;52058;49.822;6.754;2023-07-28T02:37:09;3.28;;;1.90;;
65459;SDS011;52058;49.822;6.754;2023-07-28T02:39:35;3.42;;;1.98;;
65459;SDS011;52058;49.822;6.754;2023-07-28T02:42:02;2.15;;;1.80;;
65459;SDS011;52058;49.822;6.754;2023-07-28T02:44:29;2.10;;;1.77;;
65459;SDS011;52058;49.822;6.754;2023-07-28T02:46:55;2.42;;;1.80;;
65459;SDS011;52058;49.822;6.754;2023-07-28T02:49:22;3.10;;;1.67;;
65459;SDS011;52058;49.822;6.754;2023-07-28T02:51:48;2.13;;;1.65;;
65459;SDS011;52058;49.822;6.754;2023-07-28T02:54:16;2.75;;;1.65;;
65459;SDS011;52058;49.822;6.754;2023-07-28T02:56:43;1.58;;;1.48;;
65459;SDS011;52058;49.822;6.754;2023-07-28T02:59:09;3.90;;;1.75;;
65459;SDS011;52058;49.822;6.754;2023-07-28T03:01:36;3.75;;;1.50;;
65459;SDS011;52058;49.822;6.754;2023-07-28T03:04:03;3.45;;;1.60;;
65459;SDS011;52058;49.822;6.754;2023-07-28T03:06:29;2.55;;;1.70;;
65459;SDS011;52058;49.822;6.754;2023-07-28T03:08:57;1.60;;;1.50;;
65459;SDS011;52058;49.822;6.754;2023-07-28T03:11:25;2.35;;;1.73;;
65459;SDS011;52058;49.822;6.754;2023-07-28T03:13:52;2.40;;;1.50;;
65459;SDS011;52058;49.822;6.754;2023-07-28T03:16:18;2.13;;;1.65;;
65459;SDS011;52058;49.822;6.754;2023-07-28T03:18:45;3.33;;;1.60;;
65459;SDS011;52058;49.822;6.754;2023-07-28T03:21:12;2.47;;;1.73;;
65459;SDS011;52058;49.822;6.754;2023-07-28T03:23:38;2.67;;;1.77;;
65459;SDS011;52058;49.822;6.754;2023-07-28T03:26:05;1.98;;;1.58;;
65459;SDS011;52058;49.822;6.754;2023-07-28T03:28:33;2.22;;;1.65;;
65459;SDS011;52058;49.822;6.754;2023-07-28T03:30:59;4.03;;;1.70;;
65459;SDS011;52058;49.822;6.754;2023-07-28T03:33:26;2.55;;;1.70;;
65459;SDS011;52058;49.822;6.754;2023-07-28T03:35:52;3.47;;;1.58;;
65459;SDS011;52058;49.822;6.754;2023-07-28T03:38:19;2.10;;;1.63;;
65459;SDS011;52058;49.822;6.754;2023-07-28T03:40:46;2.03;;;1.42;;
65459;SDS011;52058;49.822;6.754;2023-07-28T03:43:12;1.73;;;1.40;;
65459;SDS011;52058;49.822;6.754;2023-07-28T03:45:40;1.88;;;1.40;;
65459;SDS011;52058;49.822;6.754;2023-07-28T03:48:07;2.05;;;1.60;;
65459;SDS011;52058;49.822;6.754;2023-07-28T03:50:33;1.77;;;1.67;;
65459;SDS011;52058;49.822;6.754;2023-07-28T03:53:00;2.25;;;1.70;;
65459;SDS011;52058;49.822;6.754;2023-07-28T03:55:26;1.63;;;1.40;;
65459;SDS011;52058;49.822;6.754;2023-07-28T03:57:53;2.28;;;1.60;;
65459;SDS011;52058;49.822;6.754;2023-07-28T04:00:20;2.63;;;1.45;;
65459;SDS011;52058;49.822;6.754;2023-07-28T04:02:47;2.38;;;1.70;;
65459;SDS011;52058;49.822;6.754;2023-07-28T04:05:14;2.85;;;1.80;;
65459;SDS011;52058;49.822;6.754;2023-07-28T04:07:41;3.55;;;1.63;;
65459;SDS011;52058;49.822;6.754;2023-07-28T04:10:07;1.73;;;1.50;;
65459;SDS011;52058;49.822;6.754;2023-07-28T04:12:34;2.35;;;1.30;;
65459;SDS011;52058;49.822;6.754;2023-07-28T04:15:01;1.20;;;1.10;;
65459;SDS011;52058;49.822;6.754;2023-07-28T04:17:28;1.35;;;1.25;;
65459;SDS011;52058;49.822;6.754;2023-07-28T04:19:56;1.90;;;1.38;;
65459;SDS011;52058;49.822;6.754;2023-07-28T04:22:22;1.60;;;1.25;;
65459;SDS011;52058;49.822;6.754;2023-07-28T04:24:49;1.45;;;1.35;;
65459;SDS011;52058;49.822;6.754;2023-07-28T04:27:16;2.20;;;1.33;;
65459;SDS011;52058;49.822;6.754;2023-07-28T04:29:42;2.25;;;1.20;;
65459;SDS011;52058;49.822;6.754;2023-07-28T04:32:09;1.50;;;1.40;;
65459;SDS011;52058;49.822;6.754;2023-07-28T04:34:35;1.20;;;1.10;;
65459;SDS011;52058;49.822;6.754;2023-07-28T04:37:04;1.48;;;1.30;;
65459;SDS011;52058;49.822;6.754;2023-07-28T04:39:31;1.55;;;1.30;;
65459;SDS011;52058;49.822;6.754;2023-07-28T04:41:57;1.40;;;1.10;;
65459;SDS011;52058;49.822;6.754;2023-07-28T04:44:24;1.77;;;1.20;;
65459;SDS011;52058;49.822;6.754;2023-07-28T04:46:50;2.00;;;1.17;;
65459;SDS011;52058;49.822;6.754;2023-07-28T04:49:17;1.10;;;1.00;;
65459;SDS011;52058;49.822;6.754;2023-07-28T04:51:45;0.90;;;0.80;;
65459;SDS011;52058;49.822;6.754;2023-07-28T04:54:13;1.00;;;0.93;;
65459;SDS011;52058;49.822;6.754;2023-07-28T04:56:40;1.35;;;1.00;;
65459;SDS011;52058;49.822;6.754;2023-07-28T04:59:06;1.52;;;1.00;;
65459;SDS011;52058;49.822;6.754;2023-07-28T05:01:33;0.98;;;0.90;;
65459;SDS011;52058;49.822;6.754;2023-07-28T05:03:59;1.50;;;1.15;;
65459;SDS011;52058;49.822;6.754;2023-07-28T05:06:26;1.00;;;0.90;;
65459;SDS011;52058;49.822;6.754;2023-07-28T05:08:52;1.10;;;0.90;;
65459;SDS011;52058;49.822;6.754;2023-07-28T05:11:20;1.77;;;1.00;;
65459;SDS011;52058;49.822;6.754;2023-07-28T05:13:47;2.72;;;0.98;;
65459;SDS011;52058;49.822;6.754;2023-07-28T05:16:13;3.30;;;0.90;;
65459;SDS011;52058;49.822;6.754;2023-07-28T05:18:40;1.60;;;0.80;;
65459;SDS011;52058;49.822;6.754;2023-07-28T05:21:07;0.80;;;0.80;;
65459;SDS011;52058;49.822;6.754;2023-07-28T05:23:34;0.85;;;0.85;;
65459;SDS011;52058;49.822;6.754;2023-07-28T05:26:01;1.63;;;1.00;;
65459;SDS011;52058;49.822;6.754;2023-07-28T05:28:28;1.23;;;1.08;;
65459;SDS011;52058;49.822;6.754;2023-07-28T05:31:02;1.15;;;0.90;;
65459;SDS011;52058;49.822;6.754;2023-07-28T05:33:30;0.98;;;0.80;;
65459;SDS011;52058;49.822;6.754;2023-07-28T05:35:59;1.88;;;1.05;;
65459;SDS011;52058;49.822;6.754;2023-07-28T05:38:26;2.65;;;1.10;;
65459;SDS011;52058;49.822;6.754;2023-07-28T05:40:55;1.23;;;1.00;;
65459;SDS011;52058;49.822;6.754;2023-07-28T05:43:23;1.65;;;1.15;;
65459;SDS011;52058;49.822;6.754;2023-07-28T05:45:50;2.13;;;1.15;;
65459;SDS011;52058;49.822;6.754;2023-07-28T05:48:17;1.90;;;1.10;;
65459;SDS011;52058;49.822;6.754;2023-07-28T05:50:44;1.67;;;1.30;;
65459;SDS011;52058;49.822;6.754;2023-07-28T05:53:10;1.63;;;1.48;;
65459;SDS011;52058;49.822;6.754;2023-07-28T05:55:38;2.28;;;1.92;;
65459;SDS011;52058;49.822;6.754;2023-07-28T05:58:05;3.97;;;2.03;;
65459;SDS011;52058;49.822;6.754;2023-07-28T06:00:32;3.25;;;1.80;;
65459;SDS011;52058;49.822;6.754;2023-07-28T06:03:00;2.20;;;1.83;;
65459;SDS011;52058;49.822;6.754;2023-07-28T06:05:26;3.47;;;1.70;;
65459;SDS011;52058;49.822;6.754;2023-07-28T06:07:53;2.10;;;1.42;;
65459;SDS011;52058;49.822;6.754;2023-07-28T06:10:20;4.75;;;1.60;;
65459;SDS011;52058;49.822;6.754;2023-07-28T06:12:46;2.42;;;1.70;;
65459;SDS011;52058;49.822;6.754;2023-07-28T06:15:13;4.80;;;1.92;;
65459;SDS011;52058;49.822;6.754;2023-07-28T06:17:39;2.10;;;1.70;;
65459;SDS011;52058;49.822;6.754;2023-07-28T06:20:08;2.35;;;1.80;;
65459;SDS011;52058;49.822;6.754;2023-07-28T06:22:36;2.72;;;1.90;;
65459;SDS011;52058;49.822;6.754;2023-07-28T06:25:03;3.20;;;1.70;;
65459;SDS011;52058;49.822;6.754;2023-07-28T06:27:30;5.30;;;2.20;;
65459;SDS011;52058;49.822;6.754;2023-07-28T06:29:56;2.63;;;2.17;;
65459;SDS011;52058;49.822;6.754;2023-07-28T06:32:23;3.90;;;2.40;;
65459;SDS011;52058;49.822;6.754;2023-07-28T06:34:49;2.45;;;1.98;;
65459;SDS011;52058;49.822;6.754;2023-07-28T06:37:18;3.47;;;2.00;;
65459;SDS011;52058;49.822;6.754;2023-07-28T06:39:44;2.00;;;1.73;;
65459;SDS011;52058;49.822;6.754;2023-07-28T06:42:11;3.55;;;2.10;;
65459;SDS011;52058;49.822;6.754;2023-07-28T06:44:37;2.83;;;1.80;;
65459;SDS011;52058;49.822;6.754;2023-07-28T06:47:04;3.53;;;2.45;;
65459;SDS011;52058;49.822;6.754;2023-07-28T06:49:30;2.75;;;2.28;;
65459;SDS011;52058;49.822;6.754;2023-07-28T06:51:57;3.70;;;2.17;;
65459;SDS011;52058;49.822;6.754;2023-07-28T06:54:25;2.90;;;2.00;;
65459;SDS011;52058;49.822;6.754;2023-07-28T06:56:51;4.30;;;2.10;;
65459;SDS011;52058;49.822;6.754;2023-07-28T06:59:18;3.17;;;1.83;;
65459;SDS011;52058;49.822;6.754;2023-07-28T07:01:44;4.07;;;1.80;;
65459;SDS011;52058;49.822;6.754;2023-07-28T07:04:11;2.38;;;1.67;;
65459;SDS011;52058;49.822;6.754;2023-07-28T07:06:38;3.00;;;1.70;;
65459;SDS011;52058;49.822;6.754;2023-07-28T07:09:04;2.53;;;1.73;;
65459;SDS011;52058;49.822;6.754;2023-07-28T07:11:32;2.75;;;1.80;;
65459;SDS011;52058;49.822;6.754;2023-07-28T07:13:59;3.65;;;1.70;;
65459;SDS011;52058;49.822;6.754;2023-07-28T07:16:25;1.95;;;1.70;;
65459;SDS011;52058;49.822;6.754;2023-07-28T07:18:52;2.50;;;1.90;;
65459;SDS011;52058;49.822;6.754;2023-07-28T07:21:19;2.13;;;1.50;;
65459;SDS011;52058;49.822;6.754;2023-07-28T07:23:45;2.85;;;1.80;;
65459;SDS011;52058;49.822;6.754;2023-07-28T07:26:12;1.75;;;1.63;;
65459;SDS011;52058;49.822;6.754;2023-07-28T07:28:40;2.13;;;1.63;;
65459;SDS011;52058;49.822;6.754;2023-07-28T07:31:11;1.70;;;1.50;;
65459;SDS011;52058;49.822;6.754;2023-07-28T07:33:38;2.17;;;1.20;;
65459;SDS011;52058;49.822;6.754;2023-07-28T07:36:04;3.08;;;1.67;;
65459;SDS011;52058;49.822;6.754;2023-07-28T07:38:31;2.42;;;1.50;;
65459;SDS011;52058;49.822;6.754;2023-07-28T07:40:57;3.00;;;1.23;;
65459;SDS011;52058;49.822;6.754;2023-07-28T07:43:24;1.92;;;1.50;;
65459;SDS011;52058;49.822;6.754;2023-07-28T07:45:52;2.58;;;1.30;;
65459;SDS011;52058;49.822;6.754;2023-07-28T07:48:19;1.58;;;1.40;;
65459;SDS011;52058;49.822;6.754;2023-07-28T07:50:46;3.40;;;1.40;;
65459;SDS011;52058;49.822;6.754;2023-07-28T07:53:12;1.27;;;1.15;;
65459;SDS011;52058;49.822;6.754;2023-07-28T07:55:39;1.40;;;1.20;;
65459;SDS011;52058;49.822;6.754;2023-07-28T07:58:06;3.72;;;1.55;;
65459;SDS011;52058;49.822;6.754;2023-07-28T08:00:33;1.15;;;1.05;;
65459;SDS011;52058;49.822;6.754;2023-07-28T08:03:01;1.90;;;1.48;;
65459;SDS011;52058;49.822;6.754;2023-07-28T08:05:28;3.15;;;1.52;;
65459;SDS011;52058;49.822;6.754;2023-07-28T08:07:54;1.30;;;1.20;;
65459;SDS011;52058;49.822;6.754;2023-07-28T08:10:21;1.67;;;1.35;;
65459;SDS011;52058;49.822;6.754;2023-07-28T08:12:48;1.77;;;1.40;;
65459;SDS011;52058;49.822;6.754;2023-07-28T08:15:14;2.45;;;1.40;;
65459;SDS011;52058;49.822;6.754;2023-07-28T08:17:41;2.08;;;1.20;;
65459;SDS011;52058;49.822;6.754;2023-07-28T08:20:09;1.30;;;1.20;;
65459;SDS011;52058;49.822;6.754;2023-07-28T08:22:36;1.50;;;1.40;;
65459;SDS011;52058;49.822;6.754;2023-07-28T08:25:03;1.85;;;1.35;;
65459;SDS011;52058;49.822;6.754;2023-07-28T08:27:30;1.40;;;1.13;;
65459;SDS011;52058;49.822;6.754;2023-07-28T08:29:57;1.55;;;1.30;;
65459;SDS011;52058;49.822;6.754;2023-07-28T08:32:23;2.95;;;1.80;;
65459;SDS011;52058;49.822;6.754;2023-07-28T08:34:50;3.17;;;1.52;;
65459;SDS011;52058;49.822;6.754;2023-07-28T08:37:18;1.75;;;1.42;;
65459;SDS011;52058;49.822;6.754;2023-07-28T08:39:44;1.95;;;1.60;;
65459;SDS011;52058;49.822;6.754;2023-07-28T08:42:11;2.45;;;1.70;;
65459;SDS011;52058;49.822;6.754;2023-07-28T08:44:37;4.30;;;1.77;;
65459;SDS011;52058;49.822;6.754;2023-07-28T08:47:04;2.63;;;1.90;;
65459;SDS011;52058;49.822;6.754;2023-07-28T08:49:31;3.85;;;2.65;;
65459;SDS011;52058;49.822;6.754;2023-07-28T08:52:01;2.78;;;2.40;;
65459;SDS011;52058;49.822;6.754;2023-07-28T08:54:30;5.25;;;2.30;;
65459;SDS011;52058;49.822;6.754;2023-07-28T08:56:57;4.95;;;2.20;;
65459;SDS011;52058;49.822;6.754;2023-07-28T08:59:24;2.30;;;2.00;;
65459;SDS011;52058;49.822;6.754;2023-07-28T09:01:52;3.13;;;1.77;;
65459;SDS011;52058;49.822;6.754;2023-07-28T09:04:19;2.20;;;1.73;;
65459;SDS011;52058;49.822;6.754;2023-07-28T09:06:46;2.75;;;2.45;;
65459;SDS011;52058;49.822;6.754;2023-07-28T09:09:13;2.78;;;1.98;;
65459;SDS011;52058;49.822;6.754;2023-07-28T09:11:45;2.08;;;1.88;;
65459;SDS011;52058;49.822;6.754;2023-07-28T09:14:12;2.58;;;2.10;;
65459;SDS011;52058;49.822;6.754;2023-07-28T09:16:39;4.22;;;2.15;;
65459;SDS011;52058;49.822;6.754;2023-07-28T09:19:05;2.90;;;2.13;;
65459;SDS011;52058;49.822;6.754;2023-07-28T09:21:33;2.78;;;2.10;;
65459;SDS011;52058;49.822;6.754;2023-07-28T09:24:00;2.10;;;1.90;;
65459;SDS011;52058;49.822;6.754;2023-07-28T09:26:35;3.03;;;1.58;;
65459;SDS011;52058;49.822;6.754;2023-07-28T09:29:11;2.28;;;1.80;;
65459;SDS011;52058;49.822;6.754;2023-07-28T09:31:39;1.85;;;1.60;;
65459;SDS011;52058;49.822;6.754;2023-07-28T09:34:06;2.20;;;1.70;;
65459;SDS011;52058;49.822;6.754;2023-07-28T09:36:34;2.10;;;1.80;;
65459;SDS011;52058;49.822;6.754;2023-07-28T09:39:03;3.75;;;2.00;;
65459;SDS011;52058;49.822;6.754;2023-07-28T09:41:32;3.00;;;1.70;;
65459;SDS011;52058;49.822;6.754;2023-07-28T09:44:00;2.38;;;1.58;;
65459;SDS011;52058;49.822;6.754;2023-07-28T09:46:28;2.22;;;1.65;;
65459;SDS011;52058;49.822;6.754;2023-07-28T09:48:56;3.47;;;1.77;;
65459;SDS011;52058;49.822;6.754;2023-07-28T09:51:26;2.67;;;1.95;;
65459;SDS011;52058;49.822;6.754;2023-07-28T09:53:58;3.45;;;1.70;;
65459;SDS011;52058;49.822;6.754;2023-07-28T09:56:30;2.38;;;1.83;;
65459;SDS011;52058;49.822;6.754;2023-07-28T09:58:58;3.28;;;2.15;;
65459;SDS011;52058;49.822;6.754;2023-07-28T10:01:25;3.13;;;2.13;;
65459;SDS011;52058;49.822;6.754;2023-07-28T10:03:55;5.80;;;2.42;;
65459;SDS011;52058;49.822;6.754;2023-07-28T10:06:22;2.30;;;1.95;;
65459;SDS011;52058;49.822;6.754;2023-07-28T10:08:49;3.45;;;2.10;;
65459;SDS011;52058;49.822;6.754;2023-07-28T10:11:16;2.90;;;1.95;;
65459;SDS011;52058;49.822;6.754;2023-07-28T10:13:44;1.70;;;1.60;;
65459;SDS011;52058;49.822;6.754;2023-07-28T10:16:12;2.92;;;1.90;;
65459;SDS011;52058;49.822;6.754;2023-07-28T10:18:40;2.70;;;2.00;;
65459;SDS011;52058;49.822;6.754;2023-07-28T10:21:08;2.42;;;1.90;;
65459;SDS011;52058;49.822;6.754;2023-07-28T10:23:38;1.60;;;1.33;;
65459;SDS011;52058;49.822;6.754;2023-07-28T10:26:05;1.50;;;1.40;;
65459;SDS011;52058;49.822;6.754;2023-07-28T10:28:33;1.20;;;1.10;;
65459;SDS011;52058;49.822;6.754;2023-07-28T10:31:04;2.03;;;1.40;;
65459;SDS011;52058;49.822;6.754;2023-07-28T10:33:32;2.17;;;1.30;;
65459;SDS011;52058;49.822;6.754;2023-07-28T10:35:59;3.05;;;1.50;;
65459;SDS011;52058;49.822;6.754;2023-07-28T10:38:39;1.90;;;1.30;;
65459;SDS011;52058;49.822;6.754;2023-07-28T10:41:13;1.48;;;1.25;;
65459;SDS011;52058;49.822;6.754;2023-07-28T10:43:41;1.73;;;1.10;;
65459;SDS011;52058;49.822;6.754;2023-07-28T10:46:08;1.60;;;1.08;;
65459;SDS011;52058;49.822;6.754;2023-07-28T10:48:36;1.70;;;1.10;;
65459;SDS011;52058;49.822;6.754;2023-07-28T10:51:04;1.80;;;1.00;;
65459;SDS011;52058;49.822;6.754;2023-07-28T10:53:32;1.27;;;1.17;;
65459;SDS011;52058;49.822;6.754;2023-07-28T10:56:00;1.35;;;1.25;;
65459;SDS011;52058;49.822;6.754;2023-07-28T10:58:28;1.98;;;1.40;;
65459;SDS011;52058;49.822;6.754;2023-07-28T11:00:54;1.30;;;1.20;;
65459;SDS011;52058;49.822;6.754;2023-07-28T11:03:22;1.85;;;1.20;;
65459;SDS011;52058;49.822;6.754;2023-07-28T11:05:48;3.20;;;1.13;;
65459;SDS011;52058;49.822;6.754;2023-07-28T11:08:15;2.08;;;1.08;;
65459;SDS011;52058;49.822;6.754;2023-07-28T11:10:43;1.25;;;1.00;;
65459;SDS011;52058;49.822;6.754;2023-07-28T11:13:10;2.60;;;1.00;;
65459;SDS011;52058;49.822;6.754;2023-07-28T11:15:37;0.88;;;0.80;;
65459;SDS011;52058;49.822;6.754;2023-07-28T11:18:04;3.17;;;1.00;;
65459;SDS011;52058;49.822;6.754;2023-07-28T11:20:31;2.15;;;1.00;;
65459;SDS011;52058;49.822;6.754;2023-07-28T11:22:59;1.33;;;1.13;;
65459;SDS011;52058;49.822;6.754;2023-07-28T11:25:28;1.90;;;0.88;;
65459;SDS011;52058;49.822;6.754;2023-07-28T11:27:57;1.05;;;0.98;;
65459;SDS011;52058;49.822;6.754;2023-07-28T11:30:24;1.10;;;1.00;;
65459;SDS011;52058;49.822;6.754;2023-07-28T11:32:51;1.38;;;1.05;;
65459;SDS011;52058;49.822;6.754;2023-07-28T11:35:19;0.80;;;0.80;;
65459;SDS011;52058;49.822;6.754;2023-07-28T11:37:47;1.17;;;1.08;;
65459;SDS011;52058;49.822;6.754;2023-07-28T11:40:16;1.17;;;1.02;;
65459;SDS011;52058;49.822;6.754;2023-07-28T11:42:45;2.90;;;1.10;;
65459;SDS011;52058;49.822;6.754;2023-07-28T11:45:14;1.15;;;1.08;;
65459;SDS011;52058;49.822;6.754;2023-07-28T11:47:50;1.90;;;1.25;;
65459;SDS011;52058;49.822;6.754;2023-07-28T11:50:27;1.23;;;0.80;;
65459;SDS011;52058;49.822;6.754;2023-07-28T11:52:55;1.40;;;1.00;;
65459;SDS011;52058;49.822;6.754;2023-07-28T11:55:23;1.17;;;1.10;;
65459;SDS011;52058;49.822;6.754;2023-07-28T11:57:50;1.80;;;1.13;;
65459;SDS011;52058;49.822;6.754;2023-07-28T12:00:19;1.05;;;1.00;;
65459;SDS011;52058;49.822;6.754;2023-07-28T12:03:00;1.25;;;1.15;;
65459;SDS011;52058;49.822;6.754;2023-07-28T12:05:28;1.48;;;1.00;;
65459;SDS011;52058;49.822;6.754;2023-07-28T12:07:55;1.00;;;1.00;;
65459;SDS011;52058;49.822;6.754;2023-07-28T12:10:22;1.75;;;0.98;;
65459;SDS011;52058;49.822;6.754;2023-07-28T12:12:49;4.95;;;1.10;;
65459;SDS011;52058;49.822;6.754;2023-07-28T12:15:24;0.82;;;0.82;;
65459;SDS011;52058;49.822;6.754;2023-07-28T12:18:00;0.80;;;0.80;;
65459;SDS011;52058;49.822;6.754;2023-07-28T12:20:34;1.25;;;0.80;;
65459;SDS011;52058;49.822;6.754;2023-07-28T12:23:02;0.70;;;0.70;;
65459;SDS011;52058;49.822;6.754;2023-07-28T12:25:29;1.15;;;0.63;;
65459;SDS011;52058;49.822;6.754;2023-07-28T12:27:56;0.95;;;0.80;;
65459;SDS011;52058;49.822;6.754;2023-07-28T12:30:24;0.82;;;0.80;;
65459;SDS011;52058;49.822;6.754;2023-07-28T12:32:51;0.80;;;0.80;;
65459;SDS011;52058;49.822;6.754;2023-07-28T12:35:17;0.70;;;0.70;;
65459;SDS011;52058;49.822;6.754;2023-07-28T12:37:44;0.63;;;0.63;;
65459;SDS011;52058;49.822;6.754;2023-07-28T12:40:11;0.70;;;0.70;;
65459;SDS011;52058;49.822;6.754;2023-07-28T12:42:38;1.73;;;0.80;;
65459;SDS011;52058;49.822;6.754;2023-07-28T12:45:05;1.13;;;0.80;;
65459;SDS011;52058;49.822;6.754;2023-07-28T12:47:34;1.00;;;0.70;;
65459;SDS011;52058;49.822;6.754;2023-07-28T12:50:01;2.38;;;0.95;;
65459;SDS011;52058;49.822;6.754;2023-07-28T12:52:27;0.90;;;0.70;;
65459;SDS011;52058;49.822;6.754;2023-07-28T12:54:55;0.75;;;0.60;;
65459;SDS011;52058;49.822;6.754;2023-07-28T12:57:22;1.02;;;0.88;;
65459;SDS011;52058;49.822;6.754;2023-07-28T12:59:48;1.85;;;0.73;;
65459;SDS011;52058;49.822;6.754;2023-07-28T13:02:15;0.82;;;0.82;;
65459;SDS011;52058;49.822;6.754;2023-07-28T13:04:43;0.73;;;0.73;;
65459;SDS011;52058;49.822;6.754;2023-07-28T13:07:09;3.25;;;0.88;;
65459;SDS011;52058;49.822;6.754;2023-07-28T13:09:36;0.98;;;0.98;;
65459;SDS011;52058;49.822;6.754;2023-07-28T13:12:02;1.45;;;0.90;;
65459;SDS011;52058;49.822;6.754;2023-07-28T13:14:29;1.05;;;0.80;;
65459;SDS011;52058;49.822;6.754;2023-07-28T13:16:56;0.95;;;0.90;;
65459;SDS011;52058;49.822;6.754;2023-07-28T13:19:22;1.77;;;0.90;;
65459;SDS011;52058;49.822;6.754;2023-07-28T13:21:50;1.20;;;0.90;;
65459;SDS011;52058;49.822;6.754;2023-07-28T13:24:17;1.42;;;0.98;;
65459;SDS011;52058;49.822;6.754;2023-07-28T13:26:43;1.45;;;1.20;;
65459;SDS011;52058;49.822;6.754;2023-07-28T13:29:10;2.25;;;1.20;;
65459;SDS011;52058;49.822;6.754;2023-07-28T13:31:36;1.83;;;1.10;;
65459;SDS011;52058;49.822;6.754;2023-07-28T13:34:03;1.20;;;0.98;;
65459;SDS011;52058;49.822;6.754;2023-07-28T13:36:29;2.25;;;1.00;;
65459;SDS011;52058;49.822;6.754;2023-07-28T13:38:57;1.60;;;0.98;;
65459;SDS011;52058;49.822;6.754;2023-07-28T13:41:24;1.38;;;1.27;;
65459;SDS011;52058;49.822;6.754;2023-07-28T13:43:50;1.35;;;1.25;;
65459;SDS011;52058;49.822;6.754;2023-07-28T13:46:17;1.20;;;1.00;;
65459;SDS011;52058;49.822;6.754;2023-07-28T13:48:43;2.63;;;1.20;;
65459;SDS011;52058;49.822;6.754;2023-07-28T13:51:10;1.67;;;1.20;;
65459;SDS011;52058;49.822;6.754;2023-07-28T13:53:37;1.73;;;1.10;;
65459;SDS011;52058;49.822;6.754;2023-07-28T13:56:05;1.30;;;1.20;;
65459;SDS011;52058;49.822;6.754;2023-07-28T13:58:31;1.30;;;1.20;;
65459;SDS011;52058;49.822;6.754;2023-07-28T14:00:58;1.30;;;1.20;;
65459;SDS011;52058;49.822;6.754;2023-07-28T14:03:24;3.25;;;1.20;;
65459;SDS011;52058;49.822;6.754;2023-07-28T14:05:51;1.30;;;1.20;;
65459;SDS011;52058;49.822;6.754;2023-07-28T14:08:18;1.15;;;1.00;;
65459;SDS011;52058;49.822;6.754;2023-07-28T14:10:44;1.33;;;1.20;;
65459;SDS011;52058;49.822;6.754;2023-07-28T14:13:13;1.13;;;1.02;;
65459;SDS011;52058;49.822;6.754;2023-07-28T14:15:39;1.63;;;1.20;;
65459;SDS011;52058;49.822;6.754;2023-07-28T14:18:06;1.17;;;1.08;;
65459;SDS011;52058;49.822;6.754;2023-07-28T14:20:32;1.42;;;1.10;;
65459;SDS011;52058;49.822;6.754;2023-07-28T14:22:59;1.65;;;0.95;;
65459;SDS011;52058;49.822;6.754;2023-07-28T14:25:26;1.20;;;1.10;;
65459;SDS011;52058;49.822;6.754;2023-07-28T14:27:53;2.35;;;1.20;;
65459;SDS011;52058;49.822;6.754;2023-07-28T14:30:21;1.60;;;1.30;;
65459;SDS011;52058;49.822;6.754;2023-07-28T14:32:47;1.55;;;1.38;;
65459;SDS011;52058;49.822;6.754;2023-07-28T14:35:14;3.47;;;1.20;;
65459;SDS011;52058;49.822;6.754;2023-07-28T14:37:41;1.15;;;1.05;;
65459;SDS011;52058;49.822;6.754;2023-07-28T14:40:08;2.42;;;1.30;;
65459;SDS011;52058;49.822;6.754;2023-07-28T14:42:35;1.63;;;1.15;;
65459;SDS011;52058;49.822;6.754;2023-07-28T14:45:01;1.40;;;1.30;;
65459;SDS011;52058;49.822;6.754;2023-07-28T14:47:29;1.00;;;0.98;;
65459;SDS011;52058;49.822;6.754;2023-07-28T14:49:56;1.80;;;0.90;;
65459;SDS011;52058;49.822;6.754;2023-07-28T14:52:22;1.67;;;1.20;;